sensor_id;sensor_type;location;lat;lon;timestamp;pressure;altitude;pressure_sealevel;temperature
68745;BMP180;73143;45.456;11.064;2024-02-26T00:01:20;99740.80;;;9.40
68745;BMP180;73143;45.456;11.064;2024-02-26T00:03:57;99737.40;;;9.40
68745;BMP180;73143;45.456;11.064;2024-02-26T00:06:34;99735.00;;;9.38
68745;BMP180;73143;45.456;11.064;2024-02-26T00:09:11;99737.40;;;9.40
68745;BMP180;73143;45.456;11.064;2024-02-26T00:11:48;99725.40;;;9.40
68745;BMP180;73143;45.456;11.064;2024-02-26T00:14:25;99725.00;;;9.40
68745;BMP180;73143;45.456;11.064;2024-02-26T00:17:02;99728.40;;;9.40
68745;BMP180;73143;45.456;11.064;2024-02-26T00:19:39;99726.40;;;9.40
68745;BMP180;73143;45.456;11.064;2024-02-26T00:22:17;99712.60;;;9.40
68745;BMP180;73143;45.456;11.064;2024-02-26T00:24:54;99709.20;;;9.40
68745;BMP180;73143;45.456;11.064;2024-02-26T00:27:31;99705.60;;;9.40
68745;BMP180;73143;45.456;11.064;2024-02-26T00:30:12;99705.20;;;9.40
68745;BMP180;73143;45.456;11.064;2024-02-26T00:32:49;99698.80;;;9.40
68745;BMP180;73143;45.456;11.064;2024-02-26T00:35:26;99698.60;;;9.40
68745;BMP180;73143;45.456;11.064;2024-02-26T00:38:04;99693.40;;;9.30
68745;BMP180;73143;45.456;11.064;2024-02-26T00:40:41;99689.20;;;9.30
68745;BMP180;73143;45.456;11.064;2024-02-26T00:43:19;99685.40;;;9.22
68745;BMP180;73143;45.456;11.064;2024-02-26T00:45:55;99679.80;;;9.20
68745;BMP180;73143;45.456;11.064;2024-02-26T00:48:32;99675.00;;;9.20
68745;BMP180;73143;45.456;11.064;2024-02-26T00:51:10;99671.80;;;9.20
68745;BMP180;73143;45.456;11.064;2024-02-26T00:53:47;99665.40;;;9.20
68745;BMP180;73143;45.456;11.064;2024-02-26T00:56:25;99666.80;;;9.20
68745;BMP180;73143;45.456;11.064;2024-02-26T00:59:03;99668.20;;;9.20
68745;BMP180;73143;45.456;11.064;2024-02-26T01:01:41;99666.40;;;9.20
68745;BMP180;73143;45.456;11.064;2024-02-26T01:04:19;99658.20;;;9.20
68745;BMP180;73143;45.456;11.064;2024-02-26T01:06:55;99656.40;;;9.24
68745;BMP180;73143;45.456;11.064;2024-02-26T01:09:33;99649.40;;;9.30
68745;BMP180;73143;45.456;11.064;2024-02-26T01:12:12;99644.80;;;9.30
68745;BMP180;73143;45.456;11.064;2024-02-26T01:14:51;99641.40;;;9.40
68745;BMP180;73143;45.456;11.064;2024-02-26T01:17:28;99638.40;;;9.40
68745;BMP180;73143;45.456;11.064;2024-02-26T01:20:08;99633.20;;;9.40
68745;BMP180;73143;45.456;11.064;2024-02-26T01:22:47;99626.80;;;9.50
68745;BMP180;73143;45.456;11.064;2024-02-26T01:25:24;99625.20;;;9.50
68745;BMP180;73143;45.456;11.064;2024-02-26T01:28:01;99622.40;;;9.50
68745;BMP180;73143;45.456;11.064;2024-02-26T01:30:39;99617.00;;;9.50
68745;BMP180;73143;45.456;11.064;2024-02-26T01:33:16;99610.60;;;9.50
68745;BMP180;73143;45.456;11.064;2024-02-26T01:35:52;99606.80;;;9.58
68745;BMP180;73143;45.456;11.064;2024-02-26T01:38:30;99606.20;;;9.60
68745;BMP180;73143;45.456;11.064;2024-02-26T01:41:08;99608.00;;;9.60
68745;BMP180;73143;45.456;11.064;2024-02-26T01:43:45;99606.20;;;9.60
68745;BMP180;73143;45.456;11.064;2024-02-26T01:46:22;99603.80;;;9.60
68745;BMP180;73143;45.456;11.064;2024-02-26T01:49:00;99594.20;;;9.60
68745;BMP180;73143;45.456;11.064;2024-02-26T01:51:38;99589.40;;;9.60
68745;BMP180;73143;45.456;11.064;2024-02-26T01:54:17;99585.20;;;9.60
68745;BMP180;73143;45.456;11.064;2024-02-26T01:56:56;99577.40;;;9.60
68745;BMP180;73143;45.456;11.064;2024-02-26T01:59:35;99576.80;;;9.60
68745;BMP180;73143;45.456;11.064;2024-02-26T02:02:14;99578.20;;;9.60
68745;BMP180;73143;45.456;11.064;2024-02-26T02:04:52;99577.20;;;9.60
68745;BMP180;73143;45.456;11.064;2024-02-26T02:07:30;99575.40;;;9.60
68745;BMP180;73143;45.456;11.064;2024-02-26T02:10:09;99567.20;;;9.60
68745;BMP180;73143;45.456;11.064;2024-02-26T02:12:48;99569.20;;;9.60
68745;BMP180;73143;45.456;11.064;2024-02-26T02:15:25;99569.20;;;9.52
68745;BMP180;73143;45.456;11.064;2024-02-26T02:18:02;99566.40;;;9.50
68745;BMP180;73143;45.456;11.064;2024-02-26T02:20:40;99561.00;;;9.50
68745;BMP180;73143;45.456;11.064;2024-02-26T02:23:17;99561.80;;;9.50
68745;BMP180;73143;45.456;11.064;2024-02-26T02:25:55;99552.20;;;9.50
68745;BMP180;73143;45.456;11.064;2024-02-26T02:28:35;99544.60;;;9.50
68745;BMP180;73143;45.456;11.064;2024-02-26T02:31:13;99541.20;;;9.50
68745;BMP180;73143;45.456;11.064;2024-02-26T02:33:51;99540.60;;;9.50
68745;BMP180;73143;45.456;11.064;2024-02-26T02:36:28;99529.00;;;9.50
68745;BMP180;73143;45.456;11.064;2024-02-26T02:39:06;99527.20;;;9.50
68745;BMP180;73143;45.456;11.064;2024-02-26T02:41:44;99525.40;;;9.50
68745;BMP180;73143;45.456;11.064;2024-02-26T02:44:21;99521.20;;;9.50
68745;BMP180;73143;45.456;11.064;2024-02-26T02:46:58;99521.60;;;9.50
68745;BMP180;73143;45.456;11.064;2024-02-26T02:49:35;99524.60;;;9.50
68745;BMP180;73143;45.456;11.064;2024-02-26T02:52:13;99528.80;;;9.50
68745;BMP180;73143;45.456;11.064;2024-02-26T02:54:50;99526.60;;;9.48
68745;BMP180;73143;45.456;11.064;2024-02-26T02:57:26;99528.60;;;9.42
68745;BMP180;73143;45.456;11.064;2024-02-26T03:00:04;99529.00;;;9.40
68745;BMP180;73143;45.456;11.064;2024-02-26T03:02:41;99524.00;;;9.40
68745;BMP180;73143;45.456;11.064;2024-02-26T03:05:19;99526.00;;;9.40
68745;BMP180;73143;45.456;11.064;2024-02-26T03:07:56;99522.80;;;9.40
68745;BMP180;73143;45.456;11.064;2024-02-26T03:10:33;99513.60;;;9.40
68745;BMP180;73143;45.456;11.064;2024-02-26T03:13:10;99515.20;;;9.40
68745;BMP180;73143;45.456;11.064;2024-02-26T03:15:47;99507.80;;;9.40
68745;BMP180;73143;45.456;11.064;2024-02-26T03:18:24;99510.20;;;9.40
68745;BMP180;73143;45.456;11.064;2024-02-26T03:21:01;99508.60;;;9.40
68745;BMP180;73143;45.456;11.064;2024-02-26T03:23:39;99507.00;;;9.40
68745;BMP180;73143;45.456;11.064;2024-02-26T03:26:16;99502.40;;;9.40
68745;BMP180;73143;45.456;11.064;2024-02-26T03:28:53;99500.40;;;9.40
68745;BMP180;73143;45.456;11.064;2024-02-26T03:31:30;99498.80;;;9.36
68745;BMP180;73143;45.456;11.064;2024-02-26T03:34:12;99499.20;;;9.40
68745;BMP180;73143;45.456;11.064;2024-02-26T03:36:49;99502.20;;;9.34
68745;BMP180;73143;45.456;11.064;2024-02-26T03:39:26;99501.80;;;9.30
68745;BMP180;73143;45.456;11.064;2024-02-26T03:42:04;99503.20;;;9.32
68745;BMP180;73143;45.456;11.064;2024-02-26T03:44:42;99499.80;;;9.36
68745;BMP180;73143;45.456;11.064;2024-02-26T03:47:20;99497.80;;;9.40
68745;BMP180;73143;45.456;11.064;2024-02-26T03:49:57;99499.20;;;9.38
68745;BMP180;73143;45.456;11.064;2024-02-26T03:52:34;99500.20;;;9.32
68745;BMP180;73143;45.456;11.064;2024-02-26T03:55:12;99502.40;;;9.40
68745;BMP180;73143;45.456;11.064;2024-02-26T03:57:49;99501.00;;;9.36
68745;BMP180;73143;45.456;11.064;2024-02-26T04:00:27;99499.80;;;9.30
68745;BMP180;73143;45.456;11.064;2024-02-26T04:03:05;99500.60;;;9.30
68745;BMP180;73143;45.456;11.064;2024-02-26T04:05:42;99496.60;;;9.30
68745;BMP180;73143;45.456;11.064;2024-02-26T04:08:20;99496.20;;;9.30
68745;BMP180;73143;45.456;11.064;2024-02-26T04:10:57;99494.00;;;9.30
68745;BMP180;73143;45.456;11.064;2024-02-26T04:13:34;99497.80;;;9.30
68745;BMP180;73143;45.456;11.064;2024-02-26T04:16:13;99503.20;;;9.30
68745;BMP180;73143;45.456;11.064;2024-02-26T04:18:50;99497.20;;;9.28
68745;BMP180;73143;45.456;11.064;2024-02-26T04:21:27;99496.40;;;9.30
68745;BMP180;73143;45.456;11.064;2024-02-26T04:24:06;99486.40;;;9.30
68745;BMP180;73143;45.456;11.064;2024-02-26T04:26:43;99481.20;;;9.28
68745;BMP180;73143;45.456;11.064;2024-02-26T04:29:20;99478.80;;;9.20
68745;BMP180;73143;45.456;11.064;2024-02-26T04:31:57;99471.20;;;9.20
68745;BMP180;73143;45.456;11.064;2024-02-26T04:34:35;99481.80;;;9.20
68745;BMP180;73143;45.456;11.064;2024-02-26T04:37:11;99486.80;;;9.10
68745;BMP180;73143;45.456;11.064;2024-02-26T04:39:50;99478.00;;;9.10
68745;BMP180;73143;45.456;11.064;2024-02-26T04:42:27;99482.80;;;9.04
68745;BMP180;73143;45.456;11.064;2024-02-26T04:45:05;99487.40;;;9.00
68745;BMP180;73143;45.456;11.064;2024-02-26T04:47:44;99483.40;;;9.00
68745;BMP180;73143;45.456;11.064;2024-02-26T04:50:21;99479.80;;;9.00
68745;BMP180;73143;45.456;11.064;2024-02-26T04:52:57;99487.00;;;9.00
68745;BMP180;73143;45.456;11.064;2024-02-26T04:55:34;99491.00;;;9.00
68745;BMP180;73143;45.456;11.064;2024-02-26T04:58:11;99492.60;;;9.04
68745;BMP180;73143;45.456;11.064;2024-02-26T05:00:48;99494.80;;;9.02
68745;BMP180;73143;45.456;11.064;2024-02-26T05:03:25;99491.00;;;9.00
68745;BMP180;73143;45.456;11.064;2024-02-26T05:06:03;99484.00;;;9.00
68745;BMP180;73143;45.456;11.064;2024-02-26T05:08:41;99483.60;;;9.00
68745;BMP180;73143;45.456;11.064;2024-02-26T05:11:18;99484.20;;;9.04
68745;BMP180;73143;45.456;11.064;2024-02-26T05:13:55;99483.60;;;9.10
68745;BMP180;73143;45.456;11.064;2024-02-26T05:16:32;99478.40;;;9.06
68745;BMP180;73143;45.456;11.064;2024-02-26T05:19:10;99474.40;;;9.06
68745;BMP180;73143;45.456;11.064;2024-02-26T05:21:48;99471.20;;;9.00
68745;BMP180;73143;45.456;11.064;2024-02-26T05:24:26;99475.80;;;9.00
68745;BMP180;73143;45.456;11.064;2024-02-26T05:27:04;99476.00;;;9.00
68745;BMP180;73143;45.456;11.064;2024-02-26T05:29:41;99479.20;;;9.00
68745;BMP180;73143;45.456;11.064;2024-02-26T05:32:19;99483.00;;;9.00
68745;BMP180;73143;45.456;11.064;2024-02-26T05:34:56;99479.20;;;9.00
68745;BMP180;73143;45.456;11.064;2024-02-26T05:37:33;99485.20;;;9.10
68745;BMP180;73143;45.456;11.064;2024-02-26T05:40:17;99492.80;;;9.10
68745;BMP180;73143;45.456;11.064;2024-02-26T05:42:55;99499.00;;;9.10
68745;BMP180;73143;45.456;11.064;2024-02-26T05:45:32;99502.80;;;9.10
68745;BMP180;73143;45.456;11.064;2024-02-26T05:48:11;99501.80;;;9.10
68745;BMP180;73143;45.456;11.064;2024-02-26T05:50:50;99500.40;;;9.12
68745;BMP180;73143;45.456;11.064;2024-02-26T05:53:27;99507.60;;;9.20
68745;BMP180;73143;45.456;11.064;2024-02-26T05:56:05;99512.20;;;9.20
68745;BMP180;73143;45.456;11.064;2024-02-26T05:58:42;99511.40;;;9.30
68745;BMP180;73143;45.456;11.064;2024-02-26T06:01:20;99513.80;;;9.30
68745;BMP180;73143;45.456;11.064;2024-02-26T06:03:58;99515.00;;;9.30
68745;BMP180;73143;45.456;11.064;2024-02-26T06:06:34;99514.60;;;9.40
68745;BMP180;73143;45.456;11.064;2024-02-26T06:09:15;99519.60;;;9.40
68745;BMP180;73143;45.456;11.064;2024-02-26T06:11:53;99524.40;;;9.40
68745;BMP180;73143;45.456;11.064;2024-02-26T06:14:30;99527.80;;;9.40
68745;BMP180;73143;45.456;11.064;2024-02-26T06:17:08;99531.20;;;9.40
68745;BMP180;73143;45.456;11.064;2024-02-26T06:19:46;99538.80;;;9.32
68745;BMP180;73143;45.456;11.064;2024-02-26T06:22:24;99542.60;;;9.30
68745;BMP180;73143;45.456;11.064;2024-02-26T06:25:01;99541.40;;;9.20
68745;BMP180;73143;45.456;11.064;2024-02-26T06:27:39;99544.00;;;9.20
68745;BMP180;73143;45.456;11.064;2024-02-26T06:30:19;99549.40;;;9.10
68745;BMP180;73143;45.456;11.064;2024-02-26T06:32:56;99553.00;;;9.02
68745;BMP180;73143;45.456;11.064;2024-02-26T06:35:34;99555.80;;;9.00
68745;BMP180;73143;45.456;11.064;2024-02-26T06:38:11;99557.60;;;9.00
68745;BMP180;73143;45.456;11.064;2024-02-26T06:40:48;99562.60;;;9.00
68745;BMP180;73143;45.456;11.064;2024-02-26T06:43:26;99568.60;;;9.00
68745;BMP180;73143;45.456;11.064;2024-02-26T06:46:04;99572.40;;;8.90
68745;BMP180;73143;45.456;11.064;2024-02-26T06:48:43;99573.40;;;8.80
68745;BMP180;73143;45.456;11.064;2024-02-26T06:51:20;99571.00;;;8.80
68745;BMP180;73143;45.456;11.064;2024-02-26T06:53:57;99571.80;;;8.80
68745;BMP180;73143;45.456;11.064;2024-02-26T06:56:35;99572.80;;;8.80
68745;BMP180;73143;45.456;11.064;2024-02-26T06:59:12;99577.60;;;8.80
68745;BMP180;73143;45.456;11.064;2024-02-26T07:01:49;99576.00;;;8.80
68745;BMP180;73143;45.456;11.064;2024-02-26T07:04:26;99576.60;;;8.80
68745;BMP180;73143;45.456;11.064;2024-02-26T07:07:03;99584.60;;;8.80
68745;BMP180;73143;45.456;11.064;2024-02-26T07:09:43;99581.20;;;8.82
68745;BMP180;73143;45.456;11.064;2024-02-26T07:12:20;99587.80;;;8.90
68745;BMP180;73143;45.456;11.064;2024-02-26T07:14:57;99596.80;;;8.90
68745;BMP180;73143;45.456;11.064;2024-02-26T07:17:35;99595.80;;;8.90
68745;BMP180;73143;45.456;11.064;2024-02-26T07:20:16;99600.80;;;8.90
68745;BMP180;73143;45.456;11.064;2024-02-26T07:22:55;99600.40;;;9.00
68745;BMP180;73143;45.456;11.064;2024-02-26T07:25:31;99603.60;;;9.00
68745;BMP180;73143;45.456;11.064;2024-02-26T07:28:10;99599.60;;;9.00
68745;BMP180;73143;45.456;11.064;2024-02-26T07:30:48;99601.00;;;9.00
68745;BMP180;73143;45.456;11.064;2024-02-26T07:33:26;99603.00;;;9.00
68745;BMP180;73143;45.456;11.064;2024-02-26T07:36:05;99604.40;;;9.00
68745;BMP180;73143;45.456;11.064;2024-02-26T07:38:42;99600.60;;;9.00
68745;BMP180;73143;45.456;11.064;2024-02-26T07:41:22;99602.80;;;9.00
68745;BMP180;73143;45.456;11.064;2024-02-26T07:43:59;99602.80;;;9.00
68745;BMP180;73143;45.456;11.064;2024-02-26T07:46:36;99607.20;;;9.00
68745;BMP180;73143;45.456;11.064;2024-02-26T07:49:14;99603.60;;;9.00
68745;BMP180;73143;45.456;11.064;2024-02-26T07:51:52;99595.40;;;9.00
68745;BMP180;73143;45.456;11.064;2024-02-26T07:54:31;99592.40;;;9.10
68745;BMP180;73143;45.456;11.064;2024-02-26T07:57:08;99591.00;;;9.10
68745;BMP180;73143;45.456;11.064;2024-02-26T07:59:44;99586.80;;;9.16
68745;BMP180;73143;45.456;11.064;2024-02-26T08:02:25;99588.80;;;9.20
68745;BMP180;73143;45.456;11.064;2024-02-26T08:05:01;99599.80;;;9.20
68745;BMP180;73143;45.456;11.064;2024-02-26T08:07:39;99602.00;;;9.20
68745;BMP180;73143;45.456;11.064;2024-02-26T08:10:18;99609.80;;;9.30
68745;BMP180;73143;45.456;11.064;2024-02-26T08:12:55;99600.60;;;9.30
68745;BMP180;73143;45.456;11.064;2024-02-26T08:15:40;99594.20;;;9.36
68745;BMP180;73143;45.456;11.064;2024-02-26T08:18:17;99593.80;;;9.40
68745;BMP180;73143;45.456;11.064;2024-02-26T08:20:54;99595.40;;;9.50
68745;BMP180;73143;45.456;11.064;2024-02-26T08:23:31;99593.80;;;9.50
68745;BMP180;73143;45.456;11.064;2024-02-26T08:26:08;99587.60;;;9.52
68745;BMP180;73143;45.456;11.064;2024-02-26T08:28:46;99584.80;;;9.60
68745;BMP180;73143;45.456;11.064;2024-02-26T08:31:23;99583.40;;;9.64
68745;BMP180;73143;45.456;11.064;2024-02-26T08:34:01;99584.20;;;9.70
68745;BMP180;73143;45.456;11.064;2024-02-26T08:36:38;99590.60;;;9.80
68745;BMP180;73143;45.456;11.064;2024-02-26T08:39:18;99590.40;;;9.90
68745;BMP180;73143;45.456;11.064;2024-02-26T08:41:55;99587.40;;;9.98
68745;BMP180;73143;45.456;11.064;2024-02-26T08:44:32;99590.40;;;10.04
68745;BMP180;73143;45.456;11.064;2024-02-26T08:47:10;99587.80;;;10.10
68745;BMP180;73143;45.456;11.064;2024-02-26T08:49:48;99586.60;;;10.18
68745;BMP180;73143;45.456;11.064;2024-02-26T08:52:25;99582.00;;;10.22
68745;BMP180;73143;45.456;11.064;2024-02-26T08:55:02;99572.40;;;10.30
68745;BMP180;73143;45.456;11.064;2024-02-26T08:57:41;99578.00;;;10.40
68745;BMP180;73143;45.456;11.064;2024-02-26T09:00:22;99579.00;;;10.46
68745;BMP180;73143;45.456;11.064;2024-02-26T09:02:59;99576.80;;;10.50
68745;BMP180;73143;45.456;11.064;2024-02-26T09:05:38;99577.20;;;10.50
68745;BMP180;73143;45.456;11.064;2024-02-26T09:08:15;99576.20;;;10.50
68745;BMP180;73143;45.456;11.064;2024-02-26T09:10:53;99570.80;;;10.50
68745;BMP180;73143;45.456;11.064;2024-02-26T09:13:31;99566.60;;;10.60
68745;BMP180;73143;45.456;11.064;2024-02-26T09:16:11;99563.20;;;10.68
68745;BMP180;73143;45.456;11.064;2024-02-26T09:18:49;99563.40;;;10.70
68745;BMP180;73143;45.456;11.064;2024-02-26T09:21:26;99569.80;;;10.70
68745;BMP180;73143;45.456;11.064;2024-02-26T09:24:04;99571.40;;;10.70
68745;BMP180;73143;45.456;11.064;2024-02-26T09:26:41;99567.80;;;10.80
68745;BMP180;73143;45.456;11.064;2024-02-26T09:29:19;99573.60;;;10.80
68745;BMP180;73143;45.456;11.064;2024-02-26T09:31:56;99573.00;;;10.80
68745;BMP180;73143;45.456;11.064;2024-02-26T09:34:33;99573.40;;;10.80
68745;BMP180;73143;45.456;11.064;2024-02-26T09:37:11;99563.40;;;10.80
68745;BMP180;73143;45.456;11.064;2024-02-26T09:39:55;99571.20;;;10.80
68745;BMP180;73143;45.456;11.064;2024-02-26T09:42:33;99578.20;;;10.80
68745;BMP180;73143;45.456;11.064;2024-02-26T09:45:19;99578.20;;;10.80
68745;BMP180;73143;45.456;11.064;2024-02-26T09:48:00;99574.40;;;10.80
68745;BMP180;73143;45.456;11.064;2024-02-26T09:50:40;99579.00;;;10.80
68745;BMP180;73143;45.456;11.064;2024-02-26T09:53:17;99584.20;;;10.80
68745;BMP180;73143;45.456;11.064;2024-02-26T09:55:55;99592.60;;;10.80
68745;BMP180;73143;45.456;11.064;2024-02-26T09:58:33;99590.60;;;10.80
68745;BMP180;73143;45.456;11.064;2024-02-26T10:01:16;99586.80;;;10.80
68745;BMP180;73143;45.456;11.064;2024-02-26T10:03:57;99595.20;;;10.80
68745;BMP180;73143;45.456;11.064;2024-02-26T10:06:35;99592.40;;;10.86
68745;BMP180;73143;45.456;11.064;2024-02-26T10:09:13;99594.80;;;10.90
68745;BMP180;73143;45.456;11.064;2024-02-26T10:11:52;99597.60;;;10.90
68745;BMP180;73143;45.456;11.064;2024-02-26T10:14:29;99597.80;;;10.90
68745;BMP180;73143;45.456;11.064;2024-02-26T10:17:07;99594.40;;;10.90
68745;BMP180;73143;45.456;11.064;2024-02-26T10:19:46;99592.00;;;11.00
68745;BMP180;73143;45.456;11.064;2024-02-26T10:22:23;99585.40;;;11.10
68745;BMP180;73143;45.456;11.064;2024-02-26T10:24:59;99582.40;;;11.10
68745;BMP180;73143;45.456;11.064;2024-02-26T10:27:37;99591.00;;;11.18
68745;BMP180;73143;45.456;11.064;2024-02-26T10:30:22;99578.60;;;11.20
68745;BMP180;73143;45.456;11.064;2024-02-26T10:33:01;99584.40;;;11.18
68745;BMP180;73143;45.456;11.064;2024-02-26T10:35:38;99583.60;;;11.10
68745;BMP180;73143;45.456;11.064;2024-02-26T10:38:17;99588.00;;;11.10
68745;BMP180;73143;45.456;11.064;2024-02-26T10:40:56;99584.40;;;11.10
68745;BMP180;73143;45.456;11.064;2024-02-26T10:43:32;99582.80;;;11.10
68745;BMP180;73143;45.456;11.064;2024-02-26T10:46:11;99586.60;;;11.00
68745;BMP180;73143;45.456;11.064;2024-02-26T10:48:55;99584.80;;;11.00
68745;BMP180;73143;45.456;11.064;2024-02-26T10:51:33;99593.20;;;11.00
68745;BMP180;73143;45.456;11.064;2024-02-26T10:54:15;99586.40;;;11.00
68745;BMP180;73143;45.456;11.064;2024-02-26T10:56:54;99590.00;;;10.94
68745;BMP180;73143;45.456;11.064;2024-02-26T10:59:35;99586.40;;;10.98
68745;BMP180;73143;45.456;11.064;2024-02-26T11:02:15;99585.40;;;11.00
68745;BMP180;73143;45.456;11.064;2024-02-26T11:04:52;99589.00;;;10.90
68745;BMP180;73143;45.456;11.064;2024-02-26T11:07:29;99585.00;;;10.90
68745;BMP180;73143;45.456;11.064;2024-02-26T11:10:10;99596.60;;;10.90
68745;BMP180;73143;45.456;11.064;2024-02-26T11:12:52;99588.00;;;10.90
68745;BMP180;73143;45.456;11.064;2024-02-26T11:15:30;99593.40;;;10.90
68745;BMP180;73143;45.456;11.064;2024-02-26T11:18:11;99585.00;;;10.90
68745;BMP180;73143;45.456;11.064;2024-02-26T11:20:49;99586.80;;;10.90
68745;BMP180;73143;45.456;11.064;2024-02-26T11:23:29;99588.20;;;10.90
68745;BMP180;73143;45.456;11.064;2024-02-26T11:26:12;99589.00;;;10.90
68745;BMP180;73143;45.456;11.064;2024-02-26T11:28:51;99588.60;;;10.90
68745;BMP180;73143;45.456;11.064;2024-02-26T11:31:31;99590.80;;;10.90
68745;BMP180;73143;45.456;11.064;2024-02-26T11:34:11;99583.40;;;10.90
68745;BMP180;73143;45.456;11.064;2024-02-26T11:36:48;99579.40;;;10.90
68745;BMP180;73143;45.456;11.064;2024-02-26T11:39:26;99578.20;;;10.80
68745;BMP180;73143;45.456;11.064;2024-02-26T11:42:13;99568.60;;;10.80
68745;BMP180;73143;45.456;11.064;2024-02-26T11:44:49;99566.00;;;10.80
68745;BMP180;73143;45.456;11.064;2024-02-26T11:47:27;99563.40;;;10.80
68745;BMP180;73143;45.456;11.064;2024-02-26T11:50:38;99558.60;;;10.80
68745;BMP180;73143;45.456;11.064;2024-02-26T11:53:31;99553.80;;;10.80
68745;BMP180;73143;45.456;11.064;2024-02-26T11:56:27;99550.00;;;10.80
68745;BMP180;73143;45.456;11.064;2024-02-26T11:59:11;99556.20;;;10.80
68745;BMP180;73143;45.456;11.064;2024-02-26T12:01:51;99559.40;;;10.80
68745;BMP180;73143;45.456;11.064;2024-02-26T12:04:30;99555.20;;;10.74
68745;BMP180;73143;45.456;11.064;2024-02-26T12:07:07;99543.00;;;10.70
68745;BMP180;73143;45.456;11.064;2024-02-26T12:09:45;99547.40;;;10.70
68745;BMP180;73143;45.456;11.064;2024-02-26T12:12:24;99539.40;;;10.70
68745;BMP180;73143;45.456;11.064;2024-02-26T12:15:04;99540.00;;;10.66
68745;BMP180;73143;45.456;11.064;2024-02-26T12:17:42;99535.20;;;10.60
68745;BMP180;73143;45.456;11.064;2024-02-26T12:20:25;99531.40;;;10.60
68745;BMP180;73143;45.456;11.064;2024-02-26T12:23:04;99535.00;;;10.50
68745;BMP180;73143;45.456;11.064;2024-02-26T12:25:40;99528.40;;;10.50
68745;BMP180;73143;45.456;11.064;2024-02-26T12:28:18;99528.20;;;10.50
68745;BMP180;73143;45.456;11.064;2024-02-26T12:30:55;99538.40;;;10.50
68745;BMP180;73143;45.456;11.064;2024-02-26T12:33:36;99540.80;;;10.50
68745;BMP180;73143;45.456;11.064;2024-02-26T12:36:15;99540.20;;;10.50
68745;BMP180;73143;45.456;11.064;2024-02-26T12:38:52;99545.80;;;10.50
68745;BMP180;73143;45.456;11.064;2024-02-26T12:41:28;99548.40;;;10.48
68745;BMP180;73143;45.456;11.064;2024-02-26T12:44:05;99554.00;;;10.48
68745;BMP180;73143;45.456;11.064;2024-02-26T12:46:42;99550.80;;;10.40
68745;BMP180;73143;45.456;11.064;2024-02-26T12:49:21;99550.60;;;10.40
68745;BMP180;73143;45.456;11.064;2024-02-26T12:52:00;99547.80;;;10.40
68745;BMP180;73143;45.456;11.064;2024-02-26T12:54:38;99539.20;;;10.38
68745;BMP180;73143;45.456;11.064;2024-02-26T12:57:16;99536.60;;;10.32
68745;BMP180;73143;45.456;11.064;2024-02-26T12:59:53;99534.80;;;10.30
68745;BMP180;73143;45.456;11.064;2024-02-26T13:02:31;99534.40;;;10.30
68745;BMP180;73143;45.456;11.064;2024-02-26T13:05:11;99536.00;;;10.30
68745;BMP180;73143;45.456;11.064;2024-02-26T13:07:49;99546.40;;;10.22
68745;BMP180;73143;45.456;11.064;2024-02-26T13:10:26;99534.60;;;10.20
68745;BMP180;73143;45.456;11.064;2024-02-26T13:13:06;99532.20;;;10.20
68745;BMP180;73143;45.456;11.064;2024-02-26T13:15:43;99537.20;;;10.20
68745;BMP180;73143;45.456;11.064;2024-02-26T13:18:20;99538.60;;;10.10
68745;BMP180;73143;45.456;11.064;2024-02-26T13:23:58;99534.40;;;10.00
68745;BMP180;73143;45.456;11.064;2024-02-26T13:26:35;99524.00;;;10.00
68745;BMP180;73143;45.456;11.064;2024-02-26T13:29:19;99519.20;;;9.90
68745;BMP180;73143;45.456;11.064;2024-02-26T13:32:00;99523.60;;;9.90
68745;BMP180;73143;45.456;11.064;2024-02-26T13:34:38;99512.40;;;9.88
68745;BMP180;73143;45.456;11.064;2024-02-26T13:37:14;99517.20;;;9.80
68745;BMP180;73143;45.456;11.064;2024-02-26T13:39:52;99511.40;;;9.80
68745;BMP180;73143;45.456;11.064;2024-02-26T13:42:29;99521.40;;;9.80
68745;BMP180;73143;45.456;11.064;2024-02-26T13:45:06;99518.80;;;9.80
68745;BMP180;73143;45.456;11.064;2024-02-26T13:47:44;99508.40;;;9.80
68745;BMP180;73143;45.456;11.064;2024-02-26T13:50:21;99525.40;;;9.70
68745;BMP180;73143;45.456;11.064;2024-02-26T13:52:58;99518.20;;;9.70
68745;BMP180;73143;45.456;11.064;2024-02-26T13:55:34;99525.40;;;9.70
68745;BMP180;73143;45.456;11.064;2024-02-26T13:58:13;99514.40;;;9.70
68745;BMP180;73143;45.456;11.064;2024-02-26T14:00:50;99521.80;;;9.70
68745;BMP180;73143;45.456;11.064;2024-02-26T14:03:27;99520.20;;;9.70
68745;BMP180;73143;45.456;11.064;2024-02-26T14:06:04;99520.80;;;9.60
68745;BMP180;73143;45.456;11.064;2024-02-26T14:08:42;99527.80;;;9.60
68745;BMP180;73143;45.456;11.064;2024-02-26T14:11:19;99522.40;;;9.60
68745;BMP180;73143;45.456;11.064;2024-02-26T14:13:56;99522.40;;;9.60
68745;BMP180;73143;45.456;11.064;2024-02-26T14:16:33;99524.40;;;9.60
68745;BMP180;73143;45.456;11.064;2024-02-26T14:19:09;99530.20;;;9.60
68745;BMP180;73143;45.456;11.064;2024-02-26T14:21:49;99532.00;;;9.60
68745;BMP180;73143;45.456;11.064;2024-02-26T14:24:25;99526.00;;;9.60
68745;BMP180;73143;45.456;11.064;2024-02-26T14:27:03;99540.20;;;9.60
68745;BMP180;73143;45.456;11.064;2024-02-26T14:29:40;99520.60;;;9.60
68745;BMP180;73143;45.456;11.064;2024-02-26T14:32:17;99512.60;;;9.60
68745;BMP180;73143;45.456;11.064;2024-02-26T14:34:56;99518.60;;;9.50
68745;BMP180;73143;45.456;11.064;2024-02-26T14:37:33;99500.60;;;9.50
68745;BMP180;73143;45.456;11.064;2024-02-26T14:40:14;99505.00;;;9.50
68745;BMP180;73143;45.456;11.064;2024-02-26T14:42:51;99501.40;;;9.50
68745;BMP180;73143;45.456;11.064;2024-02-26T14:45:29;99514.00;;;9.50
68745;BMP180;73143;45.456;11.064;2024-02-26T14:48:08;99505.00;;;9.50
68745;BMP180;73143;45.456;11.064;2024-02-26T14:50:47;99508.60;;;9.50
68745;BMP180;73143;45.456;11.064;2024-02-26T14:53:24;99511.60;;;9.50
68745;BMP180;73143;45.456;11.064;2024-02-26T14:56:01;99526.20;;;9.44
68745;BMP180;73143;45.456;11.064;2024-02-26T14:58:39;99534.80;;;9.40
68745;BMP180;73143;45.456;11.064;2024-02-26T15:01:16;99528.80;;;9.40
68745;BMP180;73143;45.456;11.064;2024-02-26T15:03:54;99533.40;;;9.40
68745;BMP180;73143;45.456;11.064;2024-02-26T15:06:31;99508.40;;;9.40
68745;BMP180;73143;45.456;11.064;2024-02-26T15:09:11;99510.40;;;9.30